sensor_id;sensor_type;location;lat;lon;timestamp;P1;durP1;ratioP1;P2;durP2;ratioP2
12776;SDS011;6452;41.572;23.732;2023-07-31T00:00:43;3.53;;;3.33;;
12776;SDS011;6452;41.572;23.732;2023-07-31T00:03:09;3.47;;;3.28;;
12776;SDS011;6452;41.572;23.732;2023-07-31T00:05:36;3.60;;;3.38;;
12776;SDS011;6452;41.572;23.732;2023-07-31T00:08:02;3.38;;;3.17;;
12776;SDS011;6452;41.572;23.732;2023-07-31T00:10:27;3.55;;;3.35;;
12776;SDS011;6452;41.572;23.732;2023-07-31T00:12:54;3.63;;;3.42;;
12776;SDS011;6452;41.572;23.732;2023-07-31T00:15:19;3.20;;;3.00;;
12776;SDS011;6452;41.572;23.732;2023-07-31T00:17:45;3.10;;;2.95;;
12776;SDS011;6452;41.572;23.732;2023-07-31T00:20:12;3.10;;;2.90;;
12776;SDS011;6452;41.572;23.732;2023-07-31T00:22:37;3.13;;;2.92;;
12776;SDS011;6452;41.572;23.732;2023-07-31T00:25:04;3.40;;;3.20;;
12776;SDS011;6452;41.572;23.732;2023-07-31T00:27:32;3.25;;;3.05;;
12776;SDS011;6452;41.572;23.732;2023-07-31T00:29:57;2.90;;;2.80;;
12776;SDS011;6452;41.572;23.732;2023-07-31T00:32:23;3.25;;;3.15;;
12776;SDS011;6452;41.572;23.732;2023-07-31T00:34:49;4.00;;;3.35;;
12776;SDS011;6452;41.572;23.732;2023-07-31T00:37:16;3.40;;;3.20;;
12776;SDS011;6452;41.572;23.732;2023-07-31T00:39:42;3.58;;;3.38;;
12776;SDS011;6452;41.572;23.732;2023-07-31T00:42:08;3.30;;;3.00;;
12776;SDS011;6452;41.572;23.732;2023-07-31T00:44:34;3.17;;;2.97;;
12776;SDS011;6452;41.572;23.732;2023-07-31T00:47:00;3.47;;;3.28;;
12776;SDS011;6452;41.572;23.732;2023-07-31T00:49:26;3.83;;;3.50;;
12776;SDS011;6452;41.572;23.732;2023-07-31T00:51:52;3.35;;;3.15;;
12776;SDS011;6452;41.572;23.732;2023-07-31T00:54:19;3.20;;;3.00;;
12776;SDS011;6452;41.572;23.732;2023-07-31T00:56:46;3.65;;;3.45;;
12776;SDS011;6452;41.572;23.732;2023-07-31T00:59:13;3.70;;;3.50;;
12776;SDS011;6452;41.572;23.732;2023-07-31T01:01:39;3.22;;;3.10;;
12776;SDS011;6452;41.572;23.732;2023-07-31T01:04:05;3.03;;;2.90;;
12776;SDS011;6452;41.572;23.732;2023-07-31T01:09:04;3.22;;;3.10;;
12776;SDS011;6452;41.572;23.732;2023-07-31T01:11:37;4.13;;;3.92;;
12776;SDS011;6452;41.572;23.732;2023-07-31T01:14:03;4.15;;;3.80;;
12776;SDS011;6452;41.572;23.732;2023-07-31T01:16:29;3.65;;;3.45;;
12776;SDS011;6452;41.572;23.732;2023-07-31T01:18:55;3.67;;;3.42;;
12776;SDS011;6452;41.572;23.732;2023-07-31T01:26:36;3.70;;;3.50;;
12776;SDS011;6452;41.572;23.732;2023-07-31T01:29:04;3.95;;;3.70;;
12776;SDS011;6452;41.572;23.732;2023-07-31T01:31:32;4.32;;;4.07;;
12776;SDS011;6452;41.572;23.732;2023-07-31T01:34:02;3.80;;;3.60;;
12776;SDS011;6452;41.572;23.732;2023-07-31T01:36:29;3.92;;;3.67;;
12776;SDS011;6452;41.572;23.732;2023-07-31T01:38:59;3.63;;;3.42;;
12776;SDS011;6452;41.572;23.732;2023-07-31T01:41:27;3.42;;;3.22;;
12776;SDS011;6452;41.572;23.732;2023-07-31T01:43:52;3.72;;;3.53;;
12776;SDS011;6452;41.572;23.732;2023-07-31T01:46:18;4.13;;;3.80;;
12776;SDS011;6452;41.572;23.732;2023-07-31T01:48:44;4.00;;;3.80;;
12776;SDS011;6452;41.572;23.732;2023-07-31T01:51:10;4.20;;;4.00;;
12776;SDS011;6452;41.572;23.732;2023-07-31T01:53:36;4.72;;;4.38;;
12776;SDS011;6452;41.572;23.732;2023-07-31T01:56:02;4.55;;;4.28;;
12776;SDS011;6452;41.572;23.732;2023-07-31T01:58:28;4.65;;;4.35;;
12776;SDS011;6452;41.572;23.732;2023-07-31T02:00:54;4.45;;;4.20;;
12776;SDS011;6452;41.572;23.732;2023-07-31T02:03:20;5.80;;;4.22;;
12776;SDS011;6452;41.572;23.732;2023-07-31T02:05:47;4.38;;;4.00;;
12776;SDS011;6452;41.572;23.732;2023-07-31T02:08:13;4.38;;;4.07;;
12776;SDS011;6452;41.572;23.732;2023-07-31T02:10:39;4.55;;;4.15;;
12776;SDS011;6452;41.572;23.732;2023-07-31T02:13:05;4.60;;;4.30;;
12776;SDS011;6452;41.572;23.732;2023-07-31T02:15:31;5.00;;;4.60;;
12776;SDS011;6452;41.572;23.732;2023-07-31T02:17:57;4.72;;;4.43;;
12776;SDS011;6452;41.572;23.732;2023-07-31T02:20:23;7.78;;;4.80;;
12776;SDS011;6452;41.572;23.732;2023-07-31T02:22:49;4.93;;;4.53;;
12776;SDS011;6452;41.572;23.732;2023-07-31T02:25:15;4.97;;;4.57;;
12776;SDS011;6452;41.572;23.732;2023-07-31T02:27:41;4.82;;;4.53;;
12776;SDS011;6452;41.572;23.732;2023-07-31T02:30:07;4.72;;;4.38;;
12776;SDS011;6452;41.572;23.732;2023-07-31T02:32:33;4.70;;;4.30;;
12776;SDS011;6452;41.572;23.732;2023-07-31T02:34:59;4.82;;;4.53;;
12776;SDS011;6452;41.572;23.732;2023-07-31T02:37:25;5.55;;;5.05;;
12776;SDS011;6452;41.572;23.732;2023-07-31T02:39:51;5.30;;;4.90;;
12776;SDS011;6452;41.572;23.732;2023-07-31T02:42:17;4.53;;;4.22;;
12776;SDS011;6452;41.572;23.732;2023-07-31T02:44:43;4.75;;;4.45;;
12776;SDS011;6452;41.572;23.732;2023-07-31T02:47:08;4.88;;;4.57;;
12776;SDS011;6452;41.572;23.732;2023-07-31T02:49:34;4.90;;;4.50;;
12776;SDS011;6452;41.572;23.732;2023-07-31T02:52:00;4.40;;;4.10;;
12776;SDS011;6452;41.572;23.732;2023-07-31T02:54:26;4.70;;;4.40;;
12776;SDS011;6452;41.572;23.732;2023-07-31T02:56:52;5.47;;;5.07;;
12776;SDS011;6452;41.572;23.732;2023-07-31T02:59:19;4.63;;;4.32;;
12776;SDS011;6452;41.572;23.732;2023-07-31T03:01:45;4.28;;;3.97;;
12776;SDS011;6452;41.572;23.732;2023-07-31T03:04:11;5.40;;;5.00;;
12776;SDS011;6452;41.572;23.732;2023-07-31T03:06:37;4.38;;;4.07;;
12776;SDS011;6452;41.572;23.732;2023-07-31T03:09:03;4.70;;;4.30;;
12776;SDS011;6452;41.572;23.732;2023-07-31T03:11:29;4.78;;;4.47;;
12776;SDS011;6452;41.572;23.732;2023-07-31T03:13:55;4.50;;;4.20;;
12776;SDS011;6452;41.572;23.732;2023-07-31T03:16:21;4.57;;;4.28;;
12776;SDS011;6452;41.572;23.732;2023-07-31T03:18:47;4.30;;;4.10;;
12776;SDS011;6452;41.572;23.732;2023-07-31T03:21:14;4.78;;;4.47;;
12776;SDS011;6452;41.572;23.732;2023-07-31T03:23:40;4.32;;;4.10;;
12776;SDS011;6452;41.572;23.732;2023-07-31T03:26:07;4.25;;;4.00;;
12776;SDS011;6452;41.572;23.732;2023-07-31T03:28:33;4.88;;;4.50;;
12776;SDS011;6452;41.572;23.732;2023-07-31T03:30:59;5.30;;;4.80;;
12776;SDS011;6452;41.572;23.732;2023-07-31T03:33:25;5.20;;;4.80;;
12776;SDS011;6452;41.572;23.732;2023-07-31T03:35:51;4.50;;;4.20;;
12776;SDS011;6452;41.572;23.732;2023-07-31T03:38:17;5.25;;;4.95;;
12776;SDS011;6452;41.572;23.732;2023-07-31T03:40:43;4.82;;;4.53;;
12776;SDS011;6452;41.572;23.732;2023-07-31T03:43:09;5.30;;;4.90;;
12776;SDS011;6452;41.572;23.732;2023-07-31T03:45:35;5.38;;;4.90;;
12776;SDS011;6452;41.572;23.732;2023-07-31T03:48:01;5.47;;;5.07;;
12776;SDS011;6452;41.572;23.732;2023-07-31T03:50:27;4.85;;;4.53;;
12776;SDS011;6452;41.572;23.732;2023-07-31T03:52:53;5.15;;;4.75;;
12776;SDS011;6452;41.572;23.732;2023-07-31T03:55:19;4.68;;;4.25;;
12776;SDS011;6452;41.572;23.732;2023-07-31T03:57:45;4.68;;;4.38;;
12776;SDS011;6452;41.572;23.732;2023-07-31T04:00:11;4.95;;;4.65;;
12776;SDS011;6452;41.572;23.732;2023-07-31T04:02:38;5.43;;;5.05;;
12776;SDS011;6452;41.572;23.732;2023-07-31T04:05:04;4.90;;;4.50;;
12776;SDS011;6452;41.572;23.732;2023-07-31T04:07:30;5.10;;;4.70;;
12776;SDS011;6452;41.572;23.732;2023-07-31T04:09:57;4.82;;;4.53;;
12776;SDS011;6452;41.572;23.732;2023-07-31T04:12:22;5.03;;;4.63;;
12776;SDS011;6452;41.572;23.732;2023-07-31T04:14:49;5.07;;;4.68;;
12776;SDS011;6452;41.572;23.732;2023-07-31T04:17:15;5.00;;;4.60;;
12776;SDS011;6452;41.572;23.732;2023-07-31T04:19:43;5.43;;;5.03;;
12776;SDS011;6452;41.572;23.732;2023-07-31T04:22:09;5.95;;;5.50;;
12776;SDS011;6452;41.572;23.732;2023-07-31T04:24:35;5.47;;;4.97;;
12776;SDS011;6452;41.572;23.732;2023-07-31T04:27:01;5.45;;;4.95;;
12776;SDS011;6452;41.572;23.732;2023-07-31T04:29:27;5.15;;;4.75;;
12776;SDS011;6452;41.572;23.732;2023-07-31T04:31:53;6.13;;;5.55;;
12776;SDS011;6452;41.572;23.732;2023-07-31T04:34:19;6.95;;;5.00;;
12776;SDS011;6452;41.572;23.732;2023-07-31T04:36:45;5.20;;;4.80;;
12776;SDS011;6452;41.572;23.732;2023-07-31T04:39:11;5.35;;;4.72;;
12776;SDS011;6452;41.572;23.732;2023-07-31T04:41:37;4.80;;;4.40;;
12776;SDS011;6452;41.572;23.732;2023-07-31T04:44:02;6.43;;;4.97;;
12776;SDS011;6452;41.572;23.732;2023-07-31T04:46:29;5.95;;;5.00;;
12776;SDS011;6452;41.572;23.732;2023-07-31T04:48:55;4.80;;;4.50;;
12776;SDS011;6452;41.572;23.732;2023-07-31T04:51:22;4.97;;;4.55;;
12776;SDS011;6452;41.572;23.732;2023-07-31T04:53:48;6.03;;;5.50;;
12776;SDS011;6452;41.572;23.732;2023-07-31T04:56:18;5.30;;;4.82;;
12776;SDS011;6452;41.572;23.732;2023-07-31T04:58:45;5.15;;;4.75;;
12776;SDS011;6452;41.572;23.732;2023-07-31T05:01:11;4.22;;;3.92;;
12776;SDS011;6452;41.572;23.732;2023-07-31T05:03:37;5.25;;;4.88;;
12776;SDS011;6452;41.572;23.732;2023-07-31T05:06:04;4.80;;;4.50;;
12776;SDS011;6452;41.572;23.732;2023-07-31T05:08:30;4.82;;;4.53;;
12776;SDS011;6452;41.572;23.732;2023-07-31T05:10:57;5.05;;;4.70;;
12776;SDS011;6452;41.572;23.732;2023-07-31T05:13:23;4.80;;;4.40;;
12776;SDS011;6452;41.572;23.732;2023-07-31T05:15:49;5.55;;;5.15;;
12776;SDS011;6452;41.572;23.732;2023-07-31T05:18:15;4.75;;;4.45;;
12776;SDS011;6452;41.572;23.732;2023-07-31T05:20:41;5.13;;;4.72;;
12776;SDS011;6452;41.572;23.732;2023-07-31T05:23:07;5.13;;;4.72;;
12776;SDS011;6452;41.572;23.732;2023-07-31T05:25:33;6.15;;;5.35;;
12776;SDS011;6452;41.572;23.732;2023-07-31T05:27:59;5.13;;;4.72;;
12776;SDS011;6452;41.572;23.732;2023-07-31T05:30:26;5.70;;;5.25;;
12776;SDS011;6452;41.572;23.732;2023-07-31T05:32:52;7.47;;;5.18;;
12776;SDS011;6452;41.572;23.732;2023-07-31T05:35:18;5.07;;;4.68;;
12776;SDS011;6452;41.572;23.732;2023-07-31T05:37:44;4.85;;;4.47;;
12776;SDS011;6452;41.572;23.732;2023-07-31T05:40:10;4.90;;;4.53;;
12776;SDS011;6452;41.572;23.732;2023-07-31T05:42:36;6.22;;;5.20;;
12776;SDS011;6452;41.572;23.732;2023-07-31T05:45:04;4.93;;;4.53;;
12776;SDS011;6452;41.572;23.732;2023-07-31T05:47:32;5.70;;;5.20;;
12776;SDS011;6452;41.572;23.732;2023-07-31T05:49:58;6.35;;;5.22;;
12776;SDS011;6452;41.572;23.732;2023-07-31T05:52:24;3.63;;;3.42;;
12776;SDS011;6452;41.572;23.732;2023-07-31T05:54:50;3.40;;;3.30;;
12776;SDS011;6452;41.572;23.732;2023-07-31T05:57:17;3.08;;;2.88;;
12776;SDS011;6452;41.572;23.732;2023-07-31T05:59:43;3.47;;;3.22;;
12776;SDS011;6452;41.572;23.732;2023-07-31T06:02:09;5.07;;;4.78;;
12776;SDS011;6452;41.572;23.732;2023-07-31T06:04:35;5.35;;;4.93;;
12776;SDS011;6452;41.572;23.732;2023-07-31T06:07:01;3.90;;;3.67;;
12776;SDS011;6452;41.572;23.732;2023-07-31T06:09:28;5.80;;;5.30;;
12776;SDS011;6452;41.572;23.732;2023-07-31T06:11:54;6.07;;;5.57;;
12776;SDS011;6452;41.572;23.732;2023-07-31T06:14:20;6.10;;;5.53;;
12776;SDS011;6452;41.572;23.732;2023-07-31T06:16:46;5.20;;;4.82;;
12776;SDS011;6452;41.572;23.732;2023-07-31T06:19:12;5.45;;;5.05;;
12776;SDS011;6452;41.572;23.732;2023-07-31T06:21:38;6.15;;;5.68;;
12776;SDS011;6452;41.572;23.732;2023-07-31T06:24:05;5.90;;;5.13;;
12776;SDS011;6452;41.572;23.732;2023-07-31T06:26:31;8.30;;;6.40;;
12776;SDS011;6452;41.572;23.732;2023-07-31T06:28:56;6.18;;;5.65;;
12776;SDS011;6452;41.572;23.732;2023-07-31T06:31:22;5.28;;;4.88;;
12776;SDS011;6452;41.572;23.732;2023-07-31T06:33:49;5.35;;;4.95;;
12776;SDS011;6452;41.572;23.732;2023-07-31T06:36:15;5.50;;;5.10;;
12776;SDS011;6452;41.572;23.732;2023-07-31T06:38:41;5.40;;;5.00;;
12776;SDS011;6452;41.572;23.732;2023-07-31T06:41:07;5.25;;;4.68;;
12776;SDS011;6452;41.572;23.732;2023-07-31T06:43:33;4.70;;;4.32;;
12776;SDS011;6452;41.572;23.732;2023-07-31T06:46:04;5.07;;;4.78;;
12776;SDS011;6452;41.572;23.732;2023-07-31T06:48:29;5.05;;;4.65;;
12776;SDS011;6452;41.572;23.732;2023-07-31T06:50:56;4.55;;;4.15;;
12776;SDS011;6452;41.572;23.732;2023-07-31T06:53:22;4.78;;;4.47;;
12776;SDS011;6452;41.572;23.732;2023-07-31T06:55:48;4.82;;;4.43;;
12776;SDS011;6452;41.572;23.732;2023-07-31T06:58:13;5.63;;;5.22;;
12776;SDS011;6452;41.572;23.732;2023-07-31T07:00:40;4.57;;;4.18;;
12776;SDS011;6452;41.572;23.732;2023-07-31T07:03:06;4.82;;;4.53;;
12776;SDS011;6452;41.572;23.732;2023-07-31T07:05:32;4.60;;;4.30;;
12776;SDS011;6452;41.572;23.732;2023-07-31T07:07:58;5.65;;;5.15;;
12776;SDS011;6452;41.572;23.732;2023-07-31T07:10:24;5.43;;;5.03;;
12776;SDS011;6452;41.572;23.732;2023-07-31T07:12:50;5.07;;;4.70;;
12776;SDS011;6452;41.572;23.732;2023-07-31T07:15:16;5.03;;;4.65;;
12776;SDS011;6452;41.572;23.732;2023-07-31T07:17:42;4.63;;;4.32;;
12776;SDS011;6452;41.572;23.732;2023-07-31T07:20:08;4.35;;;3.97;;
12776;SDS011;6452;41.572;23.732;2023-07-31T07:22:34;4.13;;;3.92;;
12776;SDS011;6452;41.572;23.732;2023-07-31T07:25:00;5.70;;;4.45;;
12776;SDS011;6452;41.572;23.732;2023-07-31T07:27:26;4.68;;;4.20;;
12776;SDS011;6452;41.572;23.732;2023-07-31T07:29:52;5.45;;;4.95;;
12776;SDS011;6452;41.572;23.732;2023-07-31T07:32:18;4.50;;;4.20;;
12776;SDS011;6452;41.572;23.732;2023-07-31T07:34:45;4.63;;;4.32;;
12776;SDS011;6452;41.572;23.732;2023-07-31T07:37:11;4.35;;;4.05;;
12776;SDS011;6452;41.572;23.732;2023-07-31T07:39:37;4.18;;;3.88;;
12776;SDS011;6452;41.572;23.732;2023-07-31T07:42:03;4.75;;;4.45;;
12776;SDS011;6452;41.572;23.732;2023-07-31T07:44:29;4.07;;;3.88;;
12776;SDS011;6452;41.572;23.732;2023-07-31T07:46:55;4.95;;;4.55;;
12776;SDS011;6452;41.572;23.732;2023-07-31T07:49:21;4.15;;;3.92;;
12776;SDS011;6452;41.572;23.732;2023-07-31T07:51:48;4.07;;;3.88;;
12776;SDS011;6452;41.572;23.732;2023-07-31T07:54:15;4.22;;;3.95;;
12776;SDS011;6452;41.572;23.732;2023-07-31T07:56:42;4.40;;;4.05;;
12776;SDS011;6452;41.572;23.732;2023-07-31T07:59:07;3.83;;;3.63;;
12776;SDS011;6452;41.572;23.732;2023-07-31T08:01:33;3.50;;;3.35;;
12776;SDS011;6452;41.572;23.732;2023-07-31T08:04:00;3.95;;;3.60;;
12776;SDS011;6452;41.572;23.732;2023-07-31T08:06:25;4.53;;;3.67;;
12776;SDS011;6452;41.572;23.732;2023-07-31T08:08:51;3.58;;;3.38;;
12776;SDS011;6452;41.572;23.732;2023-07-31T08:11:18;3.70;;;3.50;;
12776;SDS011;6452;41.572;23.732;2023-07-31T08:13:44;3.50;;;3.30;;
12776;SDS011;6452;41.572;23.732;2023-07-31T08:16:10;3.55;;;3.35;;
12776;SDS011;6452;41.572;23.732;2023-07-31T08:18:36;3.80;;;3.50;;
12776;SDS011;6452;41.572;23.732;2023-07-31T08:21:02;3.88;;;3.67;;
12776;SDS011;6452;41.572;23.732;2023-07-31T08:23:29;3.55;;;3.35;;
12776;SDS011;6452;41.572;23.732;2023-07-31T08:25:54;3.28;;;3.08;;
12776;SDS011;6452;41.572;23.732;2023-07-31T08:28:21;3.63;;;3.42;;
12776;SDS011;6452;41.572;23.732;2023-07-31T08:30:47;3.45;;;3.25;;
12776;SDS011;6452;41.572;23.732;2023-07-31T08:33:12;3.50;;;3.30;;
12776;SDS011;6452;41.572;23.732;2023-07-31T08:35:39;4.53;;;4.13;;
12776;SDS011;6452;41.572;23.732;2023-07-31T08:38:05;3.70;;;3.50;;
12776;SDS011;6452;41.572;23.732;2023-07-31T08:40:31;3.53;;;3.33;;
12776;SDS011;6452;41.572;23.732;2023-07-31T08:42:56;3.33;;;3.13;;
12776;SDS011;6452;41.572;23.732;2023-07-31T08:45:27;3.50;;;3.30;;
12776;SDS011;6452;41.572;23.732;2023-07-31T08:47:53;3.42;;;3.22;;
12776;SDS011;6452;41.572;23.732;2023-07-31T08:50:20;3.38;;;3.17;;
12776;SDS011;6452;41.572;23.732;2023-07-31T08:52:47;3.50;;;3.30;;
12776;SDS011;6452;41.572;23.732;2023-07-31T08:55:13;3.58;;;3.28;;
12776;SDS011;6452;41.572;23.732;2023-07-31T08:57:39;3.40;;;3.20;;
12776;SDS011;6452;41.572;23.732;2023-07-31T09:00:05;3.42;;;3.22;;
12776;SDS011;6452;41.572;23.732;2023-07-31T09:02:46;3.15;;;3.00;;
12776;SDS011;6452;41.572;23.732;2023-07-31T09:05:17;3.60;;;3.40;;
12776;SDS011;6452;41.572;23.732;2023-07-31T09:07:43;3.00;;;2.90;;
12776;SDS011;6452;41.572;23.732;2023-07-31T09:10:14;3.50;;;3.30;;
12776;SDS011;6452;41.572;23.732;2023-07-31T09:12:40;3.92;;;3.72;;
12776;SDS011;6452;41.572;23.732;2023-07-31T09:15:05;3.67;;;3.47;;
12776;SDS011;6452;41.572;23.732;2023-07-31T09:17:32;3.38;;;3.20;;
12776;SDS011;6452;41.572;23.732;2023-07-31T09:19:58;3.50;;;3.30;;
12776;SDS011;6452;41.572;23.732;2023-07-31T09:22:38;3.80;;;3.60;;
12776;SDS011;6452;41.572;23.732;2023-07-31T09:25:17;4.05;;;3.75;;
12776;SDS011;6452;41.572;23.732;2023-07-31T09:28:16;4.25;;;3.95;;
12776;SDS011;6452;41.572;23.732;2023-07-31T09:30:51;3.90;;;3.70;;
12776;SDS011;6452;41.572;23.732;2023-07-31T09:33:17;4.45;;;4.15;;
12776;SDS011;6452;41.572;23.732;2023-07-31T09:35:43;4.45;;;4.15;;
12776;SDS011;6452;41.572;23.732;2023-07-31T09:38:10;4.25;;;3.97;;
12776;SDS011;6452;41.572;23.732;2023-07-31T09:40:38;3.60;;;3.40;;
12776;SDS011;6452;41.572;23.732;2023-07-31T09:43:05;3.58;;;3.38;;
12776;SDS011;6452;41.572;23.732;2023-07-31T09:45:34;3.85;;;3.65;;
12776;SDS011;6452;41.572;23.732;2023-07-31T09:48:02;3.67;;;3.47;;
12776;SDS011;6452;41.572;23.732;2023-07-31T09:50:28;3.90;;;3.70;;
12776;SDS011;6452;41.572;23.732;2023-07-31T09:52:55;3.72;;;3.42;;
12776;SDS011;6452;41.572;23.732;2023-07-31T09:55:21;3.88;;;3.45;;
12776;SDS011;6452;41.572;23.732;2023-07-31T09:57:47;3.90;;;3.67;;
12776;SDS011;6452;41.572;23.732;2023-07-31T10:00:15;3.85;;;3.55;;
12776;SDS011;6452;41.572;23.732;2023-07-31T10:02:41;4.28;;;3.97;;
12776;SDS011;6452;41.572;23.732;2023-07-31T10:05:09;3.97;;;3.78;;
12776;SDS011;6452;41.572;23.732;2023-07-31T10:07:37;3.85;;;3.65;;
12776;SDS011;6452;41.572;23.732;2023-07-31T10:10:04;4.45;;;4.15;;
12776;SDS011;6452;41.572;23.732;2023-07-31T10:12:31;3.88;;;3.67;;
12776;SDS011;6452;41.572;23.732;2023-07-31T10:15:00;3.90;;;3.70;;
12776;SDS011;6452;41.572;23.732;2023-07-31T10:17:26;4.40;;;4.10;;
12776;SDS011;6452;41.572;23.732;2023-07-31T10:19:52;4.28;;;4.07;;
12776;SDS011;6452;41.572;23.732;2023-07-31T10:22:21;4.57;;;4.18;;
12776;SDS011;6452;41.572;23.732;2023-07-31T10:25:04;4.25;;;3.95;;
12776;SDS011;6452;41.572;23.732;2023-07-31T10:27:34;3.88;;;3.67;;
12776;SDS011;6452;41.572;23.732;2023-07-31T10:30:01;4.05;;;3.85;;
12776;SDS011;6452;41.572;23.732;2023-07-31T10:32:29;4.20;;;3.80;;
12776;SDS011;6452;41.572;23.732;2023-07-31T10:34:55;4.07;;;3.80;;
12776;SDS011;6452;41.572;23.732;2023-07-31T10:39:57;4.60;;;4.30;;
12776;SDS011;6452;41.572;23.732;2023-07-31T10:42:36;3.83;;;3.63;;
12776;SDS011;6452;41.572;23.732;2023-07-31T10:45:03;4.60;;;4.20;;
12776;SDS011;6452;41.572;23.732;2023-07-31T10:47:29;4.10;;;3.80;;
12776;SDS011;6452;41.572;23.732;2023-07-31T10:52:59;4.22;;;3.92;;
12776;SDS011;6452;41.572;23.732;2023-07-31T11:00:32;4.25;;;4.00;;
12776;SDS011;6452;41.572;23.732;2023-07-31T11:10:37;4.60;;;4.20;;
12776;SDS011;6452;41.572;23.732;2023-07-31T11:13:04;4.60;;;4.30;;
12776;SDS011;6452;41.572;23.732;2023-07-31T11:15:29;4.63;;;4.13;;
12776;SDS011;6452;41.572;23.732;2023-07-31T11:17:56;3.90;;;3.70;;
12776;SDS011;6452;41.572;23.732;2023-07-31T11:20:41;4.50;;;4.20;;
12776;SDS011;6452;41.572;23.732;2023-07-31T11:23:08;4.65;;;4.22;;
12776;SDS011;6452;41.572;23.732;2023-07-31T11:25:34;4.43;;;4.13;;
12776;SDS011;6452;41.572;23.732;2023-07-31T11:28:06;4.75;;;4.45;;
12776;SDS011;6452;41.572;23.732;2023-07-31T11:30:33;4.63;;;4.32;;
12776;SDS011;6452;41.572;23.732;2023-07-31T11:33:03;5.13;;;4.72;;
12776;SDS011;6452;41.572;23.732;2023-07-31T11:35:30;4.30;;;4.07;;
12776;SDS011;6452;41.572;23.732;2023-07-31T11:37:56;5.03;;;4.63;;
12776;SDS011;6452;41.572;23.732;2023-07-31T11:40:22;4.72;;;4.43;;
12776;SDS011;6452;41.572;23.732;2023-07-31T11:42:55;4.47;;;4.18;;
12776;SDS011;6452;41.572;23.732;2023-07-31T11:45:20;4.78;;;4.47;;
12776;SDS011;6452;41.572;23.732;2023-07-31T11:47:47;4.97;;;4.68;;
12776;SDS011;6452;41.572;23.732;2023-07-31T11:50:13;4.95;;;4.55;;
12776;SDS011;6452;41.572;23.732;2023-07-31T11:52:40;4.65;;;4.35;;
12776;SDS011;6452;41.572;23.732;2023-07-31T11:55:07;4.85;;;4.45;;
12776;SDS011;6452;41.572;23.732;2023-07-31T11:57:35;22.45;;;18.88;;
12776;SDS011;6452;41.572;23.732;2023-07-31T12:00:01;17.45;;;14.27;;
12776;SDS011;6452;41.572;23.732;2023-07-31T12:02:28;8.30;;;7.50;;
12776;SDS011;6452;41.572;23.732;2023-07-31T12:04:54;6.70;;;6.10;;
12776;SDS011;6452;41.572;23.732;2023-07-31T12:07:20;8.48;;;7.30;;
12776;SDS011;6452;41.572;23.732;2023-07-31T12:09:50;7.43;;;6.70;;
12776;SDS011;6452;41.572;23.732;2023-07-31T12:12:23;6.15;;;5.63;;
12776;SDS011;6452;41.572;23.732;2023-07-31T12:15:13;7.43;;;6.82;;
12776;SDS011;6452;41.572;23.732;2023-07-31T12:17:40;10.48;;;8.00;;
12776;SDS011;6452;41.572;23.732;2023-07-31T12:20:06;5.47;;;4.97;;
12776;SDS011;6452;41.572;23.732;2023-07-31T12:22:34;5.25;;;4.85;;
12776;SDS011;6452;41.572;23.732;2023-07-31T12:25:00;4.50;;;4.13;;
12776;SDS011;6452;41.572;23.732;2023-07-31T12:27:32;4.93;;;4.50;;
12776;SDS011;6452;41.572;23.732;2023-07-31T12:29:58;5.22;;;4.72;;
12776;SDS011;6452;41.572;23.732;2023-07-31T12:32:24;4.07;;;3.78;;
12776;SDS011;6452;41.572;23.732;2023-07-31T12:34:54;4.40;;;4.10;;
12776;SDS011;6452;41.572;23.732;2023-07-31T12:37:22;5.40;;;4.68;;
12776;SDS011;6452;41.572;23.732;2023-07-31T12:39:49;5.28;;;4.78;;
12776;SDS011;6452;41.572;23.732;2023-07-31T12:42:17;5.40;;;4.95;;
12776;SDS011;6452;41.572;23.732;2023-07-31T12:44:43;6.00;;;5.50;;
12776;SDS011;6452;41.572;23.732;2023-07-31T12:47:09;6.32;;;5.35;;
12776;SDS011;6452;41.572;23.732;2023-07-31T12:49:35;5.70;;;5.28;;
12776;SDS011;6452;41.572;23.732;2023-07-31T12:52:01;5.78;;;5.28;;
12776;SDS011;6452;41.572;23.732;2023-07-31T12:54:28;5.72;;;5.22;;
12776;SDS011;6452;41.572;23.732;2023-07-31T12:56:54;7.05;;;5.40;;
12776;SDS011;6452;41.572;23.732;2023-07-31T12:59:20;6.13;;;5.53;;
12776;SDS011;6452;41.572;23.732;2023-07-31T13:01:47;5.57;;;5.07;;
12776;SDS011;6452;41.572;23.732;2023-07-31T13:04:13;6.07;;;5.57;;
12776;SDS011;6452;41.572;23.732;2023-07-31T13:06:40;6.10;;;5.60;;
12776;SDS011;6452;41.572;23.732;2023-07-31T13:09:06;6.00;;;5.57;;
12776;SDS011;6452;41.572;23.732;2023-07-31T13:11:31;8.38;;;6.57;;
12776;SDS011;6452;41.572;23.732;2023-07-31T13:13:58;7.63;;;5.70;;
12776;SDS011;6452;41.572;23.732;2023-07-31T13:16:24;7.50;;;6.60;;
12776;SDS011;6452;41.572;23.732;2023-07-31T13:18:50;7.32;;;6.43;;
12776;SDS011;6452;41.572;23.732;2023-07-31T13:21:17;7.22;;;6.53;;
12776;SDS011;6452;41.572;23.732;2023-07-31T13:23:42;6.70;;;6.15;;
12776;SDS011;6452;41.572;23.732;2023-07-31T13:26:09;6.75;;;6.25;;
12776;SDS011;6452;41.572;23.732;2023-07-31T13:28:35;7.38;;;6.68;;
12776;SDS011;6452;41.572;23.732;2023-07-31T13:31:01;6.70;;;5.95;;
12776;SDS011;6452;41.572;23.732;2023-07-31T13:33:27;6.15;;;5.65;;
12776;SDS011;6452;41.572;23.732;2023-07-31T13:35:53;6.25;;;5.75;;
12776;SDS011;6452;41.572;23.732;2023-07-31T13:38:19;5.95;;;5.47;;
12776;SDS011;6452;41.572;23.732;2023-07-31T13:40:45;6.32;;;5.72;;
12776;SDS011;6452;41.572;23.732;2023-07-31T13:43:11;6.30;;;5.75;;
12776;SDS011;6452;41.572;23.732;2023-07-31T13:45:37;6.07;;;5.57;;
12776;SDS011;6452;41.572;23.732;2023-07-31T13:48:04;10.35;;;6.28;;
12776;SDS011;6452;41.572;23.732;2023-07-31T13:50:30;7.00;;;6.30;;
12776;SDS011;6452;41.572;23.732;2023-07-31T13:52:56;6.75;;;6.15;;
12776;SDS011;6452;41.572;23.732;2023-07-31T13:55:22;6.30;;;5.80;;
12776;SDS011;6452;41.572;23.732;2023-07-31T13:57:48;6.88;;;6.15;;
12776;SDS011;6452;41.572;23.732;2023-07-31T14:00:14;5.72;;;5.22;;
12776;SDS011;6452;41.572;23.732;2023-07-31T14:02:41;6.13;;;5.63;;
12776;SDS011;6452;41.572;23.732;2023-07-31T14:05:07;5.88;;;5.38;;
12776;SDS011;6452;41.572;23.732;2023-07-31T14:07:34;6.32;;;5.75;;
12776;SDS011;6452;41.572;23.732;2023-07-31T14:10:00;5.65;;;5.22;;
12776;SDS011;6452;41.572;23.732;2023-07-31T14:12:26;5.88;;;5.28;;
12776;SDS011;6452;41.572;23.732;2023-07-31T14:14:52;5.55;;;5.15;;
12776;SDS011;6452;41.572;23.732;2023-07-31T14:17:18;5.00;;;4.63;;
12776;SDS011;6452;41.572;23.732;2023-07-31T14:19:45;5.32;;;4.70;;
12776;SDS011;6452;41.572;23.732;2023-07-31T14:22:11;5.40;;;5.00;;
12776;SDS011;6452;41.572;23.732;2023-07-31T14:24:37;5.82;;;5.32;;
12776;SDS011;6452;41.572;23.732;2023-07-31T14:27:03;5.65;;;5.13;;
12776;SDS011;6452;41.572;23.732;2023-07-31T14:29:30;5.55;;;5.15;;
12776;SDS011;6452;41.572;23.732;2023-07-31T14:31:56;5.43;;;5.00;;
12776;SDS011;6452;41.572;23.732;2023-07-31T14:34:22;5.55;;;4.70;;
12776;SDS011;6452;41.572;23.732;2023-07-31T14:36:48;5.63;;;5.18;;
12776;SDS011;6452;41.572;23.732;2023-07-31T14:39:14;6.30;;;5.80;;
12776;SDS011;6452;41.572;23.732;2023-07-31T14:41:41;5.82;;;5.43;;
12776;SDS011;6452;41.572;23.732;2023-07-31T14:44:07;5.20;;;4.80;;
12776;SDS011;6452;41.572;23.732;2023-07-31T14:46:33;5.88;;;5.43;;
12776;SDS011;6452;41.572;23.732;2023-07-31T14:48:59;6.20;;;5.60;;
12776;SDS011;6452;41.572;23.732;2023-07-31T14:51:25;5.60;;;5.20;;
12776;SDS011;6452;41.572;23.732;2023-07-31T14:53:51;5.63;;;5.22;;
12776;SDS011;6452;41.572;23.732;2023-07-31T14:56:17;5.72;;;5.22;;
12776;SDS011;6452;41.572;23.732;2023-07-31T14:58:44;6.07;;;5.60;;
12776;SDS011;6452;41.572;23.732;2023-07-31T15:01:10;5.60;;;5.20;;
12776;SDS011;6452;41.572;23.732;2023-07-31T15:03:36;5.45;;;5.05;;
12776;SDS011;6452;41.572;23.732;2023-07-31T15:06:02;5.93;;;5.43;;
12776;SDS011;6452;41.572;23.732;2023-07-31T15:08:30;5.72;;;5.30;;
12776;SDS011;6452;41.572;23.732;2023-07-31T15:10:56;6.07;;;5.57;;